< < Back
Terminal Aerodrome Forecast


Current Version              Previous Versions:   1  2  3  4  5  6  7  8  9  

Terminal Aerodrome Forecast

247
FTUS42 KCHS 301431 AAA
TAFCHS
TAF AMD
KCHS 301431Z 3015/0112 15011KT P6SM SCT020 BKN035
     FM301800 16012G17KT P6SM SCT035
     FM302300 14005KT P6SM FEW040
     FM010400 15004KT P6SM BKN030=

Latest METAR

508
SAUS80 KWBC 301900 CCA
MTRCHS
METAR KCHS 301856Z 14011KT 10SM SCT019 BKN030 BKN250 27/21 A3003 RMK AO2
SLP169 T02670206


USA.gov is the U.S. government's official web portal to all federal, state and local government web resources and services.